createdAt,value
2018-09-19T00:00:27.336Z,85.05
2018-09-19T00:01:27.083Z,85.25
2018-09-19T00:02:27.077Z,85.15
2018-09-19T00:03:27.072Z,85.34
2018-09-19T00:04:27.065Z,85.3
2018-09-19T00:05:27.060Z,85.53
2018-09-19T00:06:27.052Z,85.25
2018-09-19T00:07:27.050Z,85.15
2018-09-19T00:08:27.043Z,85.3
2018-09-19T00:09:27.044Z,85.34
2018-09-19T00:10:27.048Z,85.34
2018-09-19T00:11:27.035Z,85.15
2018-09-19T00:12:27.026Z,85.25
2018-09-19T00:13:27.029Z,85.44
2018-09-19T00:14:27.016Z,85.53
2018-09-19T00:15:27.016Z,85.68
2018-09-19T00:16:27.016Z,86.01
2018-09-19T00:17:27.005Z,86.07
2018-09-19T00:18:27.003Z,85.97
2018-09-19T00:19:26.998Z,85.68
2018-09-19T00:20:26.988Z,85.49
2018-09-19T00:21:26.982Z,85.68
2018-09-19T00:22:26.975Z,85.58
2018-09-19T00:23:27.019Z,85.97
2018-09-19T00:24:26.979Z,85.88
2018-09-19T00:25:26.966Z,86.07
2018-09-19T00:26:26.960Z,86.07
2018-09-19T00:27:26.954Z,85.97
2018-09-19T00:28:26.699Z,85.97
2018-09-19T00:29:26.689Z,85.68
2018-09-19T00:30:26.935Z,85.88
2018-09-19T00:31:27.182Z,85.97
2018-09-19T00:32:26.929Z,86.25
2018-09-19T00:33:26.937Z,86.16
2018-09-19T00:34:26.918Z,85.88
2018-09-19T00:35:26.929Z,86.25
2018-09-19T00:36:26.909Z,85.97
2018-09-19T00:37:26.901Z,86.16
2018-09-19T00:38:26.899Z,85.78
2018-09-19T00:39:26.889Z,86.07
2018-09-19T00:40:26.886Z,86.07
2018-09-19T00:41:26.888Z,85.78
2018-09-19T00:42:26.879Z,85.97
2018-09-19T00:43:26.888Z,85.97
2018-09-19T00:44:26.875Z,85.97
2018-09-19T00:45:26.860Z,86.07
2018-09-19T00:46:26.854Z,85.58
2018-09-19T00:47:26.848Z,86.11
2018-09-19T00:48:26.844Z,85.63
2018-09-19T00:49:26.587Z,85.82
2018-09-19T00:50:26.834Z,85.25
2018-09-19T00:51:26.844Z,85.25
2018-09-19T00:52:26.826Z,85.05
2018-09-19T00:53:26.821Z,84.53
2018-09-19T00:54:26.824Z,84.58
2018-09-19T00:55:26.815Z,84.48
2018-09-19T00:56:26.803Z,84.67
2018-09-19T00:57:26.814Z,83.71
2018-09-19T00:58:26.798Z,83.71
2018-09-19T00:59:26.796Z,83.61
2018-09-19T01:00:26.784Z,83.47
2018-09-19T01:01:26.780Z,82.89
2018-09-19T01:02:26.803Z,82.94
2018-09-19T01:03:26.769Z,82.98
2018-09-19T01:04:26.773Z,82.51
2018-09-19T01:05:26.826Z,82.21
2018-09-19T01:06:26.756Z,82.7
2018-09-19T01:07:26.751Z,82.51
2018-09-19T01:08:26.748Z,82.6
2018-09-19T01:09:26.488Z,81.84
2018-09-19T01:10:26.734Z,82.31
2018-09-19T01:11:26.739Z,82.21
2018-09-19T01:12:26.726Z,81.54
2018-09-19T01:13:26.720Z,81.93
2018-09-19T01:14:26.715Z,81.64
2018-09-19T01:15:26.711Z,81.45
2018-09-19T01:16:26.706Z,81.45
2018-09-19T01:17:26.840Z,81.1
2018-09-19T01:18:26.696Z,81.1
2018-09-19T01:19:26.693Z,81.1
2018-09-19T01:20:26.811Z,81.2
2018-09-19T01:21:26.681Z,81.01
2018-09-19T01:22:26.685Z,81.01
2018-09-19T01:23:26.674Z,80.82
2018-09-19T01:24:26.672Z,80.43
2018-09-19T01:25:26.678Z,80.63
2018-09-19T01:26:26.665Z,80.82
2018-09-19T01:27:26.665Z,80.82
2018-09-19T01:28:26.657Z,80.82
2018-09-19T01:29:26.652Z,80.63
2018-09-19T01:30:26.647Z,80.58
2018-09-19T01:31:26.641Z,80.82
2018-09-19T01:32:26.640Z,81.07
2018-09-19T01:33:26.637Z,80.97
2018-09-19T01:34:26.626Z,81.1
2018-09-19T01:35:26.621Z,80.91
2018-09-19T01:36:26.618Z,81.68
2018-09-19T01:37:26.611Z,81.45
2018-09-19T01:38:26.612Z,81.35
2018-09-19T01:39:26.605Z,81.45
2018-09-19T01:40:26.596Z,81.07
2018-09-19T01:41:26.592Z,80.97
2018-09-19T01:42:26.592Z,80.97
2018-09-19T01:43:26.582Z,81.07
2018-09-19T01:44:26.599Z,80.78
2018-09-19T01:45:26.575Z,81.07
2018-09-19T01:46:26.569Z,80.78
2018-09-19T01:47:26.572Z,80.78
2018-09-19T01:48:26.565Z,81.45
2018-09-19T01:49:26.570Z,81.74
2018-09-19T01:50:26.555Z,81.26
2018-09-19T01:51:26.548Z,81.84
2018-09-19T01:52:26.543Z,81.74
2018-09-19T01:53:26.544Z,81.74
2018-09-19T01:54:26.546Z,81.16
2018-09-19T01:55:26.530Z,81.35
2018-09-19T01:56:26.525Z,81.26
2018-09-19T01:57:26.521Z,81.16
2018-09-19T01:58:26.520Z,81.35
2018-09-19T01:59:26.559Z,81.35
2018-09-19T02:00:26.516Z,81.26
2018-09-19T02:01:26.502Z,81.26
2018-09-19T02:02:26.505Z,82.03
2018-09-19T02:03:26.544Z,81.64
2018-09-19T02:04:26.488Z,81.64
2018-09-19T02:05:26.490Z,81.64
2018-09-19T02:06:26.479Z,81.93
2018-09-19T02:07:26.473Z,82.03
2018-09-19T02:08:26.469Z,81.93
2018-09-19T02:09:26.467Z,82.03
2018-09-19T02:10:26.459Z,82.03
2018-09-19T02:11:26.450Z,82.03
2018-09-19T02:12:26.455Z,82.03
2018-09-19T02:13:26.443Z,82.03
2018-09-19T02:14:26.437Z,81.84
2018-09-19T02:15:26.441Z,81.54
2018-09-19T02:16:26.441Z,81.93
2018-09-19T02:17:26.428Z,81.35
2018-09-19T02:18:26.419Z,81.26
2018-09-19T02:19:26.415Z,81.26
2018-09-19T02:20:26.417Z,81.16
2018-09-19T02:21:26.411Z,81.35
2018-09-19T02:22:26.402Z,81.26
2018-09-19T02:23:26.411Z,81.16
2018-09-19T02:24:26.392Z,81.93
2018-09-19T02:25:26.387Z,81.93
2018-09-19T02:26:26.385Z,82.03
2018-09-19T02:27:26.379Z,82.03
2018-09-19T02:28:26.481Z,82.31
2018-09-19T02:29:26.370Z,82.31
2018-09-19T02:30:26.384Z,81.45
2018-09-19T02:31:26.394Z,82.03
2018-09-19T02:32:26.382Z,82.03
2018-09-19T02:33:26.352Z,81.93
2018-09-19T02:34:26.378Z,81.64
2018-09-19T02:35:26.363Z,81.74
2018-09-19T02:36:26.589Z,82.16
2018-09-19T02:37:26.348Z,82.35
2018-09-19T02:38:26.329Z,82.07
2018-09-19T02:39:26.341Z,82.45
2018-09-19T02:40:26.073Z,82.45
2018-09-19T02:41:26.313Z,82.35
2018-09-19T02:42:26.306Z,82.64
2018-09-19T02:43:26.331Z,82.35
2018-09-19T02:44:26.304Z,82.64
2018-09-19T02:45:26.295Z,82.54
2018-09-19T02:46:26.287Z,83.12
2018-09-19T02:47:26.290Z,83.31
2018-09-19T02:48:26.280Z,82.93
2018-09-19T02:49:26.291Z,83.22
2018-09-19T02:50:26.284Z,83.51
2018-09-19T02:52:26.264Z,83.6
2018-09-19T02:53:26.257Z,83.8
2018-09-19T02:55:26.245Z,83.41
2018-09-19T02:56:26.271Z,84.08
2018-09-19T02:57:26.261Z,83.98
2018-09-19T02:58:25.989Z,84.66
2018-09-19T02:59:26.308Z,84.47
2018-09-19T03:00:26.234Z,84.75
2018-09-19T03:01:26.219Z,85.04
2018-09-19T03:02:26.213Z,84.56
2018-09-19T03:03:26.207Z,84.56
2018-09-19T03:04:26.205Z,84.95
2018-09-19T03:05:26.206Z,85.33
2018-09-19T03:06:26.203Z,85.24
2018-09-19T03:07:26.444Z,85.33
2018-09-19T03:08:26.188Z,85.24
2018-09-19T03:09:26.201Z,85.24
2018-09-19T03:10:26.179Z,85.81
2018-09-19T03:11:26.182Z,86.1
2018-09-19T03:12:26.173Z,85.71
2018-09-19T03:13:26.162Z,85.81
2018-09-19T03:14:26.159Z,85.62
2018-09-19T03:15:26.162Z,85.62
2018-09-19T03:16:26.150Z,86.1
2018-09-19T03:17:26.437Z,86
2018-09-19T03:18:26.157Z,86.38
2018-09-19T03:19:26.175Z,86.19
2018-09-19T03:20:26.130Z,86.1
2018-09-19T03:21:26.127Z,86.19
2018-09-19T03:22:26.118Z,86
2018-09-19T03:23:25.866Z,86.29
2018-09-19T03:24:26.142Z,86.38
2018-09-19T03:25:26.112Z,86.38
2018-09-19T03:26:26.102Z,86.68
2018-09-19T03:27:26.104Z,86.96
2018-09-19T03:28:26.090Z,87.05
2018-09-19T03:29:26.084Z,86.82
2018-09-19T03:30:26.099Z,86.72
2018-09-19T03:31:26.077Z,87.49
2018-09-19T03:32:25.832Z,86.72
2018-09-19T03:33:26.066Z,87.59
2018-09-19T03:34:25.820Z,87.49
2018-09-19T03:35:26.282Z,86.63
2018-09-19T03:36:26.060Z,87.21
2018-09-19T03:37:26.074Z,87.59
2018-09-19T03:38:26.044Z,87.4
2018-09-19T03:39:26.056Z,87.88
2018-09-19T03:40:25.781Z,87.68
2018-09-19T03:41:26.028Z,87.59
2018-09-19T03:42:26.026Z,87.68
2018-09-19T03:43:26.021Z,88.17
2018-09-19T03:44:26.026Z,87.68
2018-09-19T03:45:26.011Z,88.45
2018-09-19T03:46:26.009Z,88.07
2018-09-19T03:47:26.005Z,88.17
2018-09-19T03:48:25.993Z,88.84
2018-09-19T03:49:26.008Z,88.51
2018-09-19T03:50:25.993Z,88.65
2018-09-19T03:51:25.729Z,88.93
2018-09-19T03:52:25.976Z,89.12
2018-09-19T03:53:25.979Z,88.98
2018-09-19T03:54:25.716Z,88.89
2018-09-19T03:55:25.718Z,89.08
2018-09-19T03:56:25.969Z,88.89
2018-09-19T03:57:25.957Z,89.18
2018-09-19T03:58:26.096Z,89.08
2018-09-19T03:59:25.944Z,89.27
2018-09-19T04:00:25.937Z,89.37
2018-09-19T04:01:25.931Z,89.27
2018-09-19T04:02:25.931Z,89.08
2018-09-19T04:03:25.937Z,89.27
2018-09-19T04:04:25.932Z,89.18
2018-09-19T04:05:25.918Z,89.32
2018-09-19T04:06:25.909Z,89.85
2018-09-19T04:07:25.904Z,89.65
2018-09-19T04:08:25.901Z,89.47
2018-09-19T04:09:25.909Z,89.85
2018-09-19T04:10:25.894Z,89.23
2018-09-19T04:11:25.886Z,89.42
2018-09-19T04:12:25.880Z,89.37
2018-09-19T04:13:25.878Z,89.61
2018-09-19T04:14:25.871Z,89.9
2018-09-19T04:15:25.874Z,90.19
2018-09-19T04:16:25.858Z,90
2018-09-19T04:17:25.851Z,89.9
2018-09-19T04:18:25.854Z,90.19
2018-09-19T04:19:25.842Z,90.19
2018-09-19T04:20:25.840Z,90.09
2018-09-19T04:21:25.837Z,90.28
2018-09-19T04:22:25.839Z,90.28
2018-09-19T04:23:25.823Z,90.86
2018-09-19T04:24:25.830Z,90.76
2018-09-19T04:25:25.573Z,90.47
2018-09-19T04:26:25.825Z,90.86
2018-09-19T04:27:25.814Z,91.05
2018-09-19T04:28:25.795Z,91.43
2018-09-19T04:29:25.790Z,90.86
2018-09-19T04:31:25.528Z,90.95
2018-09-19T04:32:26.045Z,90.57
2018-09-19T04:33:25.775Z,90.76
2018-09-19T04:34:25.775Z,91.43
2018-09-19T04:35:25.763Z,91
2018-09-19T04:36:26.578Z,91.1
2018-09-19T04:37:25.750Z,91
2018-09-19T04:38:25.783Z,90.81
2018-09-19T04:39:25.747Z,90.81
2018-09-19T04:40:25.741Z,91.19
2018-09-19T04:41:25.989Z,91
2018-09-19T04:42:25.724Z,91
2018-09-19T04:43:25.724Z,91.29
2018-09-19T04:44:25.714Z,90.91
2018-09-19T04:45:25.458Z,90.81
2018-09-19T04:46:25.708Z,91.39
2018-09-19T04:47:25.697Z,91.49
2018-09-19T04:48:25.690Z,91.39
2018-09-19T04:49:25.691Z,91.39
2018-09-19T04:50:25.709Z,91.29
2018-09-19T04:51:25.771Z,91.58
2018-09-19T04:52:25.759Z,91.29
2018-09-19T04:53:25.669Z,91.39
2018-09-19T04:54:25.662Z,92.06
2018-09-19T04:55:25.653Z,91.39
2018-09-19T04:56:25.665Z,91.67
2018-09-19T04:57:25.649Z,91.67
2018-09-19T04:58:25.643Z,91.67
2018-09-19T04:59:25.643Z,91.77
2018-09-19T05:00:25.649Z,91.96
2018-09-19T05:01:25.624Z,91.77
2018-09-19T05:02:25.616Z,91.67
2018-09-19T05:03:25.360Z,91.67
2018-09-19T05:04:25.614Z,91.29
2018-09-19T05:05:25.599Z,91.19
2018-09-19T05:06:25.596Z,91.39
2018-09-19T05:07:25.874Z,91.29
2018-09-19T05:08:25.590Z,91.67
2018-09-19T05:09:25.587Z,91.49
2018-09-19T05:10:25.591Z,91.29
2018-09-19T05:11:25.742Z,91.58
2018-09-19T05:12:25.852Z,91.39
2018-09-19T05:13:25.578Z,91.58
2018-09-19T05:14:25.561Z,91.24
2018-09-19T05:15:25.549Z,91.24
2018-09-19T05:16:25.556Z,91.24
2018-09-19T05:17:25.536Z,91.14
2018-09-19T05:18:25.541Z,91.43
2018-09-19T05:19:25.541Z,91.63
2018-09-19T05:20:25.522Z,90.86
2018-09-19T05:21:25.545Z,90.9
2018-09-19T05:22:25.516Z,91
2018-09-19T05:23:25.519Z,90.52
2018-09-19T05:24:25.501Z,90.61
2018-09-19T05:25:25.508Z,89.94
2018-09-19T05:26:25.496Z,89.56
2018-09-19T05:27:25.496Z,90.28
2018-09-19T05:28:25.487Z,89.89
2018-09-19T05:29:25.489Z,89.22
2018-09-19T05:30:25.475Z,89.22
2018-09-19T05:31:25.495Z,88.69
2018-09-19T05:32:25.472Z,88.79
2018-09-19T05:33:25.461Z,88.21
2018-09-19T05:34:25.463Z,88.11
2018-09-19T05:35:25.453Z,87.49
2018-09-19T05:36:25.447Z,87.1
2018-09-19T05:37:25.447Z,87.1
2018-09-19T05:38:25.447Z,86.85
2018-09-19T05:39:25.184Z,86.38
2018-09-19T05:40:25.433Z,86.57
2018-09-19T05:41:25.176Z,86.09
2018-09-19T05:42:25.471Z,85.36
2018-09-19T05:43:25.422Z,85.46
2018-09-19T05:44:25.168Z,85.17
2018-09-19T05:45:25.416Z,85.11
2018-09-19T05:46:25.503Z,84.25
2018-09-19T05:47:25.415Z,84.34
2018-09-19T05:48:25.412Z,83.42
2018-09-19T05:49:25.481Z,83.33
2018-09-19T05:50:25.403Z,83.14
2018-09-19T05:51:25.401Z,82.75
2018-09-19T05:52:25.397Z,82.98
2018-09-19T05:53:25.394Z,82.5
2018-09-19T05:54:25.490Z,81.77
2018-09-19T05:55:25.395Z,81.39
2018-09-19T05:56:25.384Z,81.29
2018-09-19T05:57:25.381Z,81.14
2018-09-19T05:58:25.387Z,80.37
2018-09-19T05:59:25.401Z,80.18
2018-09-19T06:00:25.386Z,79.54
2018-09-19T06:01:25.384Z,78.58
2018-09-19T06:02:25.375Z,78.23
2018-09-19T06:03:25.376Z,77.94
2018-09-19T06:04:25.376Z,77.46
2018-09-19T06:05:25.377Z,77.01
2018-09-19T06:06:25.373Z,76.34
2018-09-19T06:07:25.123Z,76.05
2018-09-19T06:08:25.376Z,75.6
2018-09-19T06:09:25.369Z,75.02
2018-09-19T06:10:25.372Z,74.35
2018-09-19T06:11:25.379Z,73.8
2018-09-19T06:12:25.375Z,72.94
2018-09-19T06:13:25.369Z,72.68
2018-09-19T06:14:25.391Z,72
2018-09-19T06:15:25.369Z,71.26
2018-09-19T06:16:25.368Z,70.88
2018-09-19T06:17:25.371Z,69.53
2018-09-19T06:18:25.370Z,69.66
2018-09-19T06:19:25.374Z,68.98
2018-09-19T06:20:25.384Z,68.98
2018-09-19T06:21:25.121Z,68.15
2018-09-19T06:22:25.377Z,67.56
2018-09-19T06:23:25.381Z,67.11
2018-09-19T06:24:25.378Z,66.43
2018-09-19T06:25:25.382Z,65.95
2018-09-19T06:26:25.390Z,65.5
2018-09-19T06:27:25.387Z,64.82
2018-09-19T06:28:25.386Z,64.37
2018-09-19T06:29:25.396Z,63.4
2018-09-19T06:30:25.394Z,62.75
2018-09-19T06:31:25.456Z,61.49
2018-09-19T06:32:25.404Z,61.52
2018-09-19T06:33:25.529Z,60.97
2018-09-19T06:34:25.408Z,60.09
2018-09-19T06:35:25.406Z,59.8
2018-09-19T06:36:25.407Z,58.86
2018-09-19T06:37:25.415Z,58.59
2018-09-19T06:38:25.479Z,57.62
2018-09-19T06:39:25.426Z,56.77
2018-09-19T06:40:25.596Z,56.68
2018-09-19T06:41:25.436Z,55.93
2018-09-19T06:42:25.184Z,55.35
2018-09-19T06:43:25.442Z,55.25
2018-09-19T06:44:25.507Z,55.15
2018-09-19T06:45:25.463Z,54.28
2018-09-19T06:46:25.469Z,54.38
2018-09-19T06:47:25.462Z,54.18
2018-09-19T06:48:25.469Z,54.28
2018-09-19T06:49:25.497Z,53.4
2018-09-19T06:50:25.473Z,53.3
2018-09-19T06:51:25.479Z,53.67
2018-09-19T06:52:25.642Z,54.15
2018-09-19T06:53:25.486Z,53.86
2018-09-19T06:54:25.493Z,54.05
2018-09-19T06:55:25.497Z,54.05
2018-09-19T06:56:25.501Z,54.05
2018-09-19T06:57:25.510Z,54.47
2018-09-19T06:58:25.511Z,54.38
2018-09-19T06:59:25.517Z,54.18
2018-09-19T07:00:25.520Z,54.18
2018-09-19T07:01:25.534Z,54.3
2018-09-19T07:02:25.534Z,53.33
2018-09-19T07:03:25.533Z,53.16
2018-09-19T07:04:25.287Z,52.67
2018-09-19T07:05:25.546Z,52.31
2018-09-19T07:06:25.556Z,51.63
2018-09-19T07:07:25.557Z,50.97
2018-09-19T07:08:25.568Z,50.38
2018-09-19T07:09:25.320Z,50.09
2018-09-19T07:10:25.642Z,50.12
2018-09-19T07:11:25.584Z,50.04
2018-09-19T07:12:25.594Z,49.17
2018-09-19T07:13:25.597Z,49.1
2018-09-19T07:14:25.648Z,48.22
2018-09-19T07:15:25.613Z,47.66
2018-09-19T07:16:25.623Z,47.46
2018-09-19T07:17:25.635Z,46.09
2018-09-19T07:18:25.652Z,45.82
2018-09-19T07:19:25.660Z,45.33
2018-09-19T07:20:25.658Z,45.43
2018-09-19T07:21:25.667Z,45.33
2018-09-19T07:22:25.673Z,45.23
2018-09-19T07:23:25.682Z,44.94
2018-09-19T07:24:25.703Z,44.87
2018-09-19T07:25:25.701Z,44.67
2018-09-19T07:26:25.712Z,44.48
2018-09-19T07:27:25.717Z,44.48
2018-09-19T07:28:25.733Z,44.28
2018-09-19T07:29:25.746Z,44.09
2018-09-19T07:30:25.757Z,44.09
2018-09-19T07:31:25.762Z,43.4
2018-09-19T07:32:25.768Z,43.59
2018-09-19T07:33:25.778Z,43.69
2018-09-19T07:34:25.797Z,43.3
2018-09-19T07:35:25.802Z,43.49
2018-09-19T07:36:25.804Z,43.89
2018-09-19T07:37:25.813Z,43.89
2018-09-19T07:38:25.821Z,43.96
2018-09-19T07:39:25.843Z,43.96
2018-09-19T07:40:26.069Z,44.26
2018-09-19T07:41:25.853Z,44.34
2018-09-19T07:42:25.861Z,44.84
2018-09-19T07:43:25.873Z,45.21
2018-09-19T07:44:25.881Z,45.21
2018-09-19T07:45:25.888Z,45.31
2018-09-19T07:46:25.945Z,45.61
2018-09-19T07:47:25.912Z,45.61
2018-09-19T07:48:26.161Z,45.61
2018-09-19T07:49:25.929Z,45.7
2018-09-19T07:50:25.928Z,45.7
2018-09-19T07:51:25.936Z,45.51
2018-09-19T07:52:25.947Z,45.51
2018-09-19T07:53:25.705Z,45.61
2018-09-19T07:54:25.985Z,45.8
2018-09-19T07:55:25.790Z,45.9
2018-09-19T07:56:25.992Z,46.17
2018-09-19T07:57:25.987Z,45.87
2018-09-19T07:58:26.002Z,46.56
2018-09-19T07:59:26.008Z,46.92
2018-09-19T08:00:26.061Z,46.63
2018-09-19T08:01:26.021Z,46.73
2018-09-19T08:02:26.072Z,47.02
2018-09-19T08:03:26.035Z,47.49
2018-09-19T08:04:25.786Z,47.19
2018-09-19T08:05:26.049Z,47.97
2018-09-19T08:06:26.053Z,47.95
2018-09-19T08:07:26.061Z,48.34
2018-09-19T08:08:26.064Z,48.93
2018-09-19T08:09:26.078Z,49.22
2018-09-19T08:10:26.079Z,49.78
2018-09-19T08:11:26.104Z,50.36
2018-09-19T08:12:26.091Z,50.34
2018-09-19T08:13:26.097Z,50.82
2018-09-19T08:14:26.103Z,50.92
2018-09-19T08:15:26.108Z,50.73
2018-09-19T08:16:26.113Z,50.43
2018-09-19T08:17:26.122Z,51.09
2018-09-19T08:18:26.122Z,50.99
2018-09-19T08:19:26.397Z,51.19
2018-09-19T08:20:26.139Z,51.77
2018-09-19T08:21:26.137Z,52.06
2018-09-19T08:22:26.244Z,52.33
2018-09-19T08:23:26.148Z,52.53
2018-09-19T08:24:26.153Z,52.82
2018-09-19T08:25:26.157Z,52.62
2018-09-19T08:26:26.163Z,53.11
2018-09-19T08:27:26.168Z,53.11
2018-09-19T08:28:26.168Z,53.01
2018-09-19T08:29:26.174Z,52.62
2018-09-19T08:30:26.182Z,51.94
2018-09-19T08:31:26.181Z,51.84
2018-09-19T08:32:26.188Z,51.84
2018-09-19T08:33:26.208Z,51.84
2018-09-19T08:34:26.203Z,51.62
2018-09-19T08:35:26.194Z,51.62
2018-09-19T08:36:26.200Z,51.65
2018-09-19T08:37:26.215Z,51.14
2018-09-19T08:38:26.212Z,51.07
2018-09-19T08:39:26.211Z,51.23
2018-09-19T08:40:26.212Z,50.95
2018-09-19T08:41:26.220Z,51.04
2018-09-19T08:42:26.222Z,51.23
2018-09-19T08:43:26.225Z,50.95
2018-09-19T08:44:26.232Z,51.23
2018-09-19T08:45:26.233Z,51.7
2018-09-19T08:46:25.980Z,51.5
2018-09-19T08:47:26.233Z,51.89
2018-09-19T08:48:26.308Z,52.19
2018-09-19T08:49:26.248Z,52.47
2018-09-19T08:50:26.303Z,52.37
2018-09-19T08:51:26.255Z,52.19
2018-09-19T08:52:26.253Z,52.28
2018-09-19T08:53:26.308Z,52.35
2018-09-19T08:54:26.264Z,52.76
2018-09-19T08:55:26.267Z,52.84
2018-09-19T08:56:26.265Z,52.55
2018-09-19T08:57:26.270Z,52.84
2018-09-19T08:58:26.272Z,52.84
2018-09-19T08:59:26.293Z,52.74
2018-09-19T09:00:26.284Z,53.52
2018-09-19T09:01:26.281Z,52.94
2018-09-19T09:02:26.280Z,53.39
2018-09-19T09:03:26.279Z,53.49
2018-09-19T09:04:26.281Z,53.39
2018-09-19T09:05:26.675Z,53.39
2018-09-19T09:06:26.289Z,53.49
2018-09-19T09:07:26.290Z,53.59
2018-09-19T09:08:26.290Z,53.59
2018-09-19T09:09:26.300Z,53.59
2018-09-19T09:10:26.297Z,53.59
2018-09-19T09:11:26.300Z,53.59
2018-09-19T09:12:26.364Z,54.07
2018-09-19T09:13:26.308Z,54.17
2018-09-19T09:14:26.304Z,53.49
2018-09-19T09:15:26.311Z,53.59
2018-09-19T09:16:26.065Z,53.78
2018-09-19T09:17:26.064Z,54.85
2018-09-19T09:18:26.317Z,54.85
2018-09-19T09:19:26.317Z,54.17
2018-09-19T09:20:26.323Z,54.85
2018-09-19T09:21:26.324Z,53.95
2018-09-19T09:22:26.324Z,53.49
2018-09-19T09:23:26.326Z,54.17
2018-09-19T09:24:26.325Z,54.92
2018-09-19T09:25:26.339Z,53.88
2018-09-19T09:26:26.342Z,54.94
2018-09-19T09:27:26.528Z,54.07
2018-09-19T09:28:26.335Z,53.85
2018-09-19T09:29:26.338Z,54.56
2018-09-19T09:30:26.340Z,54.53
2018-09-19T09:31:26.337Z,54.36
2018-09-19T09:32:26.341Z,54.92
2018-09-19T09:33:26.343Z,54.92
2018-09-19T09:34:26.611Z,54.94
2018-09-19T09:35:26.352Z,55.04
2018-09-19T09:36:26.350Z,54.56
2018-09-19T09:37:26.353Z,54.82
2018-09-19T09:38:26.099Z,54.82
2018-09-19T09:39:26.355Z,54.14
2018-09-19T09:40:26.604Z,54.72
2018-09-19T09:41:26.356Z,53.95
2018-09-19T09:42:26.358Z,54.63
2018-09-19T09:43:26.147Z,54.63
2018-09-19T09:44:26.365Z,54.63
2018-09-19T09:45:26.372Z,54.17
2018-09-19T09:46:26.368Z,54.46
2018-09-19T09:47:26.374Z,54.34
2018-09-19T09:48:26.368Z,53.95
2018-09-19T09:49:26.374Z,53.56
2018-09-19T09:50:26.559Z,53.59
2018-09-19T09:51:26.443Z,53.59
2018-09-19T09:52:26.383Z,53.59
2018-09-19T09:53:26.604Z,53.47
2018-09-19T09:54:26.382Z,53.49
2018-09-19T09:55:26.380Z,53.47
2018-09-19T09:56:26.384Z,54.05
2018-09-19T09:57:26.386Z,54.14
2018-09-19T09:58:26.391Z,54.24
2018-09-19T09:59:26.386Z,53.56
2018-09-19T10:00:26.387Z,53.47
2018-09-19T10:01:26.391Z,53.66
2018-09-19T10:02:26.393Z,53.56
2018-09-19T10:03:26.416Z,53.75
2018-09-19T10:04:26.399Z,53.85
2018-09-19T10:05:26.394Z,54.07
2018-09-19T10:06:26.528Z,53.95
2018-09-19T10:07:26.411Z,54.07
2018-09-19T10:08:26.147Z,53.56
2018-09-19T10:09:26.401Z,53.37
2018-09-19T10:10:26.405Z,54.17
2018-09-19T10:11:26.151Z,54.24
2018-09-19T10:12:26.404Z,54.82
2018-09-19T10:13:26.406Z,54.82
2018-09-19T10:14:26.157Z,55.02
2018-09-19T10:15:26.416Z,54.53
2018-09-19T10:16:26.458Z,54.72
2018-09-19T10:17:26.412Z,54.72
2018-09-19T10:18:26.413Z,54.72
2018-09-19T10:19:26.417Z,54.72
2018-09-19T10:20:26.416Z,54.94
2018-09-19T10:21:26.422Z,55.04
2018-09-19T10:22:26.166Z,54.56
2018-09-19T10:23:26.418Z,54.85
2018-09-19T10:24:26.427Z,54.07
2018-09-19T10:25:26.424Z,53.39
2018-09-19T10:26:26.427Z,53.49
2018-09-19T10:27:26.425Z,53.88
2018-09-19T10:28:26.429Z,53.78
2018-09-19T10:29:26.534Z,53.75
2018-09-19T10:30:26.433Z,53.69
2018-09-19T10:31:26.433Z,53.69
2018-09-19T10:32:26.435Z,54.14
2018-09-19T10:33:26.443Z,53.85
2018-09-19T10:34:26.434Z,54.44
2018-09-19T10:35:26.564Z,54.94
2018-09-19T10:36:26.442Z,54.85
2018-09-19T10:37:26.441Z,54.46
2018-09-19T10:38:26.443Z,54.36
2018-09-19T10:39:26.444Z,54.66
2018-09-19T10:40:26.445Z,54.94
2018-09-19T10:41:26.451Z,53.88
2018-09-19T10:42:26.447Z,53.78
2018-09-19T10:43:26.449Z,53.78
2018-09-19T10:44:26.455Z,53.78
2018-09-19T10:45:26.452Z,54.17
2018-09-19T10:46:26.452Z,53.97
2018-09-19T10:47:26.455Z,54.56
2018-09-19T10:48:26.456Z,54.56
2018-09-19T10:49:26.592Z,54.17
2018-09-19T10:50:26.461Z,53.69
2018-09-19T10:51:26.477Z,53.49
2018-09-19T10:52:26.461Z,53.59
2018-09-19T10:53:26.462Z,53.78
2018-09-19T10:54:26.466Z,53.59
2018-09-19T10:55:26.467Z,54.07
2018-09-19T10:56:26.468Z,53.39
2018-09-19T10:57:26.468Z,53.78
2018-09-19T10:58:26.476Z,53.39
2018-09-19T10:59:26.487Z,53.78
2018-09-19T11:00:26.480Z,53.78
2018-09-19T11:01:26.474Z,53.49
2018-09-19T11:02:26.477Z,53.03
2018-09-19T11:03:26.483Z,53.03
2018-09-19T11:04:26.480Z,53.03
2018-09-19T11:05:26.484Z,52.52
2018-09-19T11:06:26.483Z,52.35
2018-09-19T11:07:26.487Z,52.84
2018-09-19T11:08:26.490Z,53.1
2018-09-19T11:09:26.489Z,52.72
2018-09-19T11:10:26.493Z,53.13
2018-09-19T11:11:26.494Z,52.84
2018-09-19T11:12:26.240Z,52.74
2018-09-19T11:13:26.495Z,53.42
2018-09-19T11:14:26.496Z,53.71
2018-09-19T11:15:26.245Z,52.74
2018-09-19T11:16:26.499Z,52.55
2018-09-19T11:17:26.501Z,52.45
2018-09-19T11:18:26.501Z,52.84
2018-09-19T11:19:26.508Z,52.84
2018-09-19T11:20:26.507Z,52.74
2018-09-19T11:21:26.506Z,52.74
2018-09-19T11:22:26.510Z,52.55
2018-09-19T11:23:26.509Z,52.64
2018-09-19T11:24:26.514Z,52.45
2018-09-19T11:25:26.517Z,52.35
2018-09-19T11:26:26.679Z,52.25
2018-09-19T11:27:26.521Z,52.15
2018-09-19T11:28:26.517Z,52.45
2018-09-19T11:29:26.524Z,52.64
2018-09-19T11:30:26.521Z,52.55
2018-09-19T11:31:26.528Z,52.84
2018-09-19T11:32:26.526Z,52.74
2018-09-19T11:33:26.526Z,52.84
2018-09-19T11:34:26.528Z,52.45
2018-09-19T11:35:26.528Z,52.64
2018-09-19T11:36:26.531Z,52.64
2018-09-19T11:37:26.281Z,52.55
2018-09-19T11:38:26.533Z,52.55
2018-09-19T11:39:26.537Z,52.35
2018-09-19T11:40:26.538Z,52.45
2018-09-19T11:41:26.539Z,52.28
2018-09-19T11:42:26.541Z,52.35
2018-09-19T11:43:26.680Z,52.35
2018-09-19T11:44:26.550Z,52.74
2018-09-19T11:45:26.298Z,52.76
2018-09-19T11:46:26.547Z,52.67
2018-09-19T11:47:26.559Z,52.57
2018-09-19T11:48:26.559Z,52.47
2018-09-19T11:49:26.303Z,52.28
2018-09-19T11:50:26.561Z,51.89
2018-09-19T11:51:26.306Z,52.57
2018-09-19T11:52:26.559Z,52.28
2018-09-19T11:53:26.565Z,52.28
2018-09-19T11:54:26.562Z,51.6
2018-09-19T11:55:26.565Z,51.6
2018-09-19T11:56:26.567Z,51.6
2018-09-19T11:57:26.317Z,51.6
2018-09-19T11:58:26.572Z,51.89
2018-09-19T11:59:26.575Z,51.6
2018-09-19T12:00:26.575Z,51.7
2018-09-19T12:01:26.578Z,51.6
2018-09-19T12:02:26.583Z,51.7
2018-09-19T12:03:26.586Z,51.79
2018-09-19T12:04:26.581Z,51.79
2018-09-19T12:05:26.588Z,51.6
2018-09-19T12:06:26.584Z,51.7
2018-09-19T12:07:26.740Z,51.5
2018-09-19T12:08:26.591Z,51.31
2018-09-19T12:09:26.597Z,51.11
2018-09-19T12:10:26.593Z,51.11
2018-09-19T12:11:26.594Z,50.85
2018-09-19T12:12:26.596Z,50.46
2018-09-19T12:13:26.598Z,50.65
2018-09-19T12:14:26.600Z,50.65
2018-09-19T12:15:26.602Z,50.56
2018-09-19T12:16:26.603Z,50.65
2018-09-19T12:17:26.605Z,50.65
2018-09-19T12:18:26.608Z,50.95
2018-09-19T12:19:26.670Z,50.46
2018-09-19T12:20:26.615Z,50.65
2018-09-19T12:21:26.615Z,50.75
2018-09-19T12:22:26.625Z,50.65
2018-09-19T12:23:26.624Z,50.56
2018-09-19T12:24:26.620Z,50.65
2018-09-19T12:25:26.622Z,50.56
2018-09-19T12:26:26.764Z,50.36
2018-09-19T12:27:26.630Z,50.26
2018-09-19T12:28:26.629Z,49.8
2018-09-19T12:29:26.632Z,49.78
2018-09-19T12:30:26.633Z,49.8
2018-09-19T12:31:26.639Z,49.68
2018-09-19T12:32:26.639Z,49.78
2018-09-19T12:33:26.742Z,49.8
2018-09-19T12:34:26.650Z,49.9
2018-09-19T12:35:26.645Z,49.71
2018-09-19T12:36:26.648Z,49.41
2018-09-19T12:37:26.655Z,49.71
2018-09-19T12:38:26.399Z,49.02
2018-09-19T12:39:26.744Z,48.63
2018-09-19T12:40:26.407Z,48.25
2018-09-19T12:41:26.665Z,48.54
2018-09-19T12:42:26.410Z,48.34
2018-09-19T12:43:26.664Z,48.15
2018-09-19T12:44:26.665Z,48.15
2018-09-19T12:45:26.666Z,48.44
2018-09-19T12:46:26.669Z,48.25
2018-09-19T12:47:26.673Z,48.05
2018-09-19T12:48:26.423Z,47.76
2018-09-19T12:49:26.677Z,47.86
2018-09-19T12:50:26.680Z,47.37
2018-09-19T12:51:26.681Z,47.76
2018-09-19T12:52:26.685Z,47.96
2018-09-19T12:53:26.839Z,47.56
2018-09-19T12:54:26.691Z,48.05
2018-09-19T12:55:26.692Z,48.25
2018-09-19T12:56:26.693Z,48.15
2018-09-19T12:57:26.697Z,47.96
2018-09-19T12:58:26.698Z,48.05